sensor_id;sensor_type;location;lat;lon;timestamp;temperature;humidity
18408;DHT22;9330;52.210;21.174;2022-08-19T00:01:54;21.00;99.90
18408;DHT22;9330;52.210;21.174;2022-08-19T00:04:23;20.90;99.90
18408;DHT22;9330;52.210;21.174;2022-08-19T00:06:51;20.90;99.90
18408;DHT22;9330;52.210;21.174;2022-08-19T00:09:20;20.80;99.90
18408;DHT22;9330;52.210;21.174;2022-08-19T00:11:47;20.80;99.90
18408;DHT22;9330;52.210;21.174;2022-08-19T00:14:16;20.70;99.90
18408;DHT22;9330;52.210;21.174;2022-08-19T00:16:44;20.70;99.90
18408;DHT22;9330;52.210;21.174;2022-08-19T00:19:14;20.70;99.90
18408;DHT22;9330;52.210;21.174;2022-08-19T00:21:42;20.60;99.90
18408;DHT22;9330;52.210;21.174;2022-08-19T00:24:11;20.60;99.90
18408;DHT22;9330;52.210;21.174;2022-08-19T00:26:38;20.60;99.90
18408;DHT22;9330;52.210;21.174;2022-08-19T00:29:07;20.50;99.90
18408;DHT22;9330;52.210;21.174;2022-08-19T00:31:34;20.40;99.90
18408;DHT22;9330;52.210;21.174;2022-08-19T00:34:02;20.40;99.90
18408;DHT22;9330;52.210;21.174;2022-08-19T00:36:31;20.40;99.90
18408;DHT22;9330;52.210;21.174;2022-08-19T00:38:59;20.40;99.90
18408;DHT22;9330;52.210;21.174;2022-08-19T00:41:26;20.40;99.90
18408;DHT22;9330;52.210;21.174;2022-08-19T00:44:01;20.30;99.90
18408;DHT22;9330;52.210;21.174;2022-08-19T00:46:30;20.30;99.90
18408;DHT22;9330;52.210;21.174;2022-08-19T00:48:58;20.30;99.90
18408;DHT22;9330;52.210;21.174;2022-08-19T00:51:27;20.20;99.90
18408;DHT22;9330;52.210;21.174;2022-08-19T00:53:57;20.20;99.90
18408;DHT22;9330;52.210;21.174;2022-08-19T00:56:26;20.20;99.90
18408;DHT22;9330;52.210;21.174;2022-08-19T00:58:55;20.20;99.90
18408;DHT22;9330;52.210;21.174;2022-08-19T01:01:23;20.10;99.90
18408;DHT22;9330;52.210;21.174;2022-08-19T01:03:50;20.10;99.90
18408;DHT22;9330;52.210;21.174;2022-08-19T01:06:17;20.10;99.90
18408;DHT22;9330;52.210;21.174;2022-08-19T01:08:44;20.00;99.90
18408;DHT22;9330;52.210;21.174;2022-08-19T01:11:13;20.00;99.90
18408;DHT22;9330;52.210;21.174;2022-08-19T01:13:40;20.00;99.90
18408;DHT22;9330;52.210;21.174;2022-08-19T01:16:11;19.90;99.90
18408;DHT22;9330;52.210;21.174;2022-08-19T01:18:41;19.90;99.90
18408;DHT22;9330;52.210;21.174;2022-08-19T01:21:12;19.90;99.90
18408;DHT22;9330;52.210;21.174;2022-08-19T01:23:44;19.90;99.90
18408;DHT22;9330;52.210;21.174;2022-08-19T01:26:14;19.90;99.90
18408;DHT22;9330;52.210;21.174;2022-08-19T01:28:44;19.90;99.90
18408;DHT22;9330;52.210;21.174;2022-08-19T01:31:14;19.80;99.90
18408;DHT22;9330;52.210;21.174;2022-08-19T01:33:42;19.80;99.90
18408;DHT22;9330;52.210;21.174;2022-08-19T01:36:11;19.80;99.90
18408;DHT22;9330;52.210;21.174;2022-08-19T01:38:41;19.80;99.90
18408;DHT22;9330;52.210;21.174;2022-08-19T01:41:10;19.80;99.90
18408;DHT22;9330;52.210;21.174;2022-08-19T01:43:37;19.80;99.90
18408;DHT22;9330;52.210;21.174;2022-08-19T01:46:04;19.80;99.90
18408;DHT22;9330;52.210;21.174;2022-08-19T01:48:36;19.80;99.90
18408;DHT22;9330;52.210;21.174;2022-08-19T01:51:04;19.90;99.90
18408;DHT22;9330;52.210;21.174;2022-08-19T01:53:31;19.80;99.90
18408;DHT22;9330;52.210;21.174;2022-08-19T01:55:59;19.80;99.90
18408;DHT22;9330;52.210;21.174;2022-08-19T01:58:31;19.90;99.90
18408;DHT22;9330;52.210;21.174;2022-08-19T02:00:59;19.80;99.90
18408;DHT22;9330;52.210;21.174;2022-08-19T02:03:26;19.80;99.90
18408;DHT22;9330;52.210;21.174;2022-08-19T02:05:56;19.90;99.90
18408;DHT22;9330;52.210;21.174;2022-08-19T02:08:25;19.90;99.90
18408;DHT22;9330;52.210;21.174;2022-08-19T02:10:53;19.90;99.90
18408;DHT22;9330;52.210;21.174;2022-08-19T02:13:20;19.90;99.90
18408;DHT22;9330;52.210;21.174;2022-08-19T02:15:49;19.90;99.90
18408;DHT22;9330;52.210;21.174;2022-08-19T02:18:17;19.90;99.90
18408;DHT22;9330;52.210;21.174;2022-08-19T02:20:45;20.00;99.90
18408;DHT22;9330;52.210;21.174;2022-08-19T02:23:14;20.00;99.90
18408;DHT22;9330;52.210;21.174;2022-08-19T02:25:43;20.00;99.90
18408;DHT22;9330;52.210;21.174;2022-08-19T02:28:11;20.00;99.90
18408;DHT22;9330;52.210;21.174;2022-08-19T02:30:38;20.00;99.90
18408;DHT22;9330;52.210;21.174;2022-08-19T02:33:08;20.00;99.90
18408;DHT22;9330;52.210;21.174;2022-08-19T02:35:35;20.10;99.90
18408;DHT22;9330;52.210;21.174;2022-08-19T02:38:02;20.00;99.90
18408;DHT22;9330;52.210;21.174;2022-08-19T02:40:49;20.10;99.90
18408;DHT22;9330;52.210;21.174;2022-08-19T02:43:17;20.10;99.90
18408;DHT22;9330;52.210;21.174;2022-08-19T02:45:46;20.10;99.90
18408;DHT22;9330;52.210;21.174;2022-08-19T02:48:15;20.00;99.90
18408;DHT22;9330;52.210;21.174;2022-08-19T02:50:43;20.00;99.90
18408;DHT22;9330;52.210;21.174;2022-08-19T02:53:10;20.10;99.90
18408;DHT22;9330;52.210;21.174;2022-08-19T02:55:44;20.10;99.90
18408;DHT22;9330;52.210;21.174;2022-08-19T02:58:11;20.10;99.90
18408;DHT22;9330;52.210;21.174;2022-08-19T03:00:42;20.20;99.90
18408;DHT22;9330;52.210;21.174;2022-08-19T03:03:10;20.20;99.90
18408;DHT22;9330;52.210;21.174;2022-08-19T03:05:39;20.20;99.90
18408;DHT22;9330;52.210;21.174;2022-08-19T03:08:07;20.30;99.90
18408;DHT22;9330;52.210;21.174;2022-08-19T03:10:40;20.30;99.90
18408;DHT22;9330;52.210;21.174;2022-08-19T03:13:10;20.30;99.90
18408;DHT22;9330;52.210;21.174;2022-08-19T03:15:40;20.40;99.90
18408;DHT22;9330;52.210;21.174;2022-08-19T03:18:07;20.30;99.90
18408;DHT22;9330;52.210;21.174;2022-08-19T03:20:41;20.40;99.90
18408;DHT22;9330;52.210;21.174;2022-08-19T03:23:09;20.30;99.90
18408;DHT22;9330;52.210;21.174;2022-08-19T03:25:38;20.30;99.90
18408;DHT22;9330;52.210;21.174;2022-08-19T03:28:06;20.20;99.90
18408;DHT22;9330;52.210;21.174;2022-08-19T03:30:33;20.20;99.90
18408;DHT22;9330;52.210;21.174;2022-08-19T03:33:01;20.20;99.90
18408;DHT22;9330;52.210;21.174;2022-08-19T03:35:28;20.20;99.90
18408;DHT22;9330;52.210;21.174;2022-08-19T03:37:58;20.10;99.90
18408;DHT22;9330;52.210;21.174;2022-08-19T03:40:25;20.10;99.90
18408;DHT22;9330;52.210;21.174;2022-08-19T03:42:52;20.00;99.90
18408;DHT22;9330;52.210;21.174;2022-08-19T03:45:19;20.00;99.90
18408;DHT22;9330;52.210;21.174;2022-08-19T03:47:46;20.00;99.90
18408;DHT22;9330;52.210;21.174;2022-08-19T03:50:14;20.10;99.90
18408;DHT22;9330;52.210;21.174;2022-08-19T03:52:41;20.00;99.90
18408;DHT22;9330;52.210;21.174;2022-08-19T03:55:10;20.00;99.90
18408;DHT22;9330;52.210;21.174;2022-08-19T03:57:37;20.10;99.90
18408;DHT22;9330;52.210;21.174;2022-08-19T04:00:05;20.10;99.90
18408;DHT22;9330;52.210;21.174;2022-08-19T04:05:00;20.10;99.90
18408;DHT22;9330;52.210;21.174;2022-08-19T04:07:28;20.10;99.90
18408;DHT22;9330;52.210;21.174;2022-08-19T04:09:55;20.10;99.90
18408;DHT22;9330;52.210;21.174;2022-08-19T04:12:23;20.10;99.90
18408;DHT22;9330;52.210;21.174;2022-08-19T04:14:50;20.20;99.90
18408;DHT22;9330;52.210;21.174;2022-08-19T04:17:17;20.20;99.90
18408;DHT22;9330;52.210;21.174;2022-08-19T04:19:44;20.20;99.90
18408;DHT22;9330;52.210;21.174;2022-08-19T04:22:11;20.20;99.90
18408;DHT22;9330;52.210;21.174;2022-08-19T04:24:38;20.20;99.90
18408;DHT22;9330;52.210;21.174;2022-08-19T04:27:05;20.20;99.90
18408;DHT22;9330;52.210;21.174;2022-08-19T04:29:34;20.30;99.90
18408;DHT22;9330;52.210;21.174;2022-08-19T04:32:01;20.30;99.90
18408;DHT22;9330;52.210;21.174;2022-08-19T04:34:29;20.40;99.90
18408;DHT22;9330;52.210;21.174;2022-08-19T04:36:57;20.50;99.90
18408;DHT22;9330;52.210;21.174;2022-08-19T04:39:27;20.50;99.90
18408;DHT22;9330;52.210;21.174;2022-08-19T04:42:15;20.60;99.90
18408;DHT22;9330;52.210;21.174;2022-08-19T04:45:02;20.60;99.90
18408;DHT22;9330;52.210;21.174;2022-08-19T04:47:29;20.80;99.90
18408;DHT22;9330;52.210;21.174;2022-08-19T04:49:58;20.90;99.90
18408;DHT22;9330;52.210;21.174;2022-08-19T04:52:25;21.00;99.90
18408;DHT22;9330;52.210;21.174;2022-08-19T04:54:52;21.00;99.90
18408;DHT22;9330;52.210;21.174;2022-08-19T04:57:21;21.20;99.90
18408;DHT22;9330;52.210;21.174;2022-08-19T04:59:48;21.30;99.90
18408;DHT22;9330;52.210;21.174;2022-08-19T05:02:16;21.40;99.90
18408;DHT22;9330;52.210;21.174;2022-08-19T05:04:43;21.50;99.90
18408;DHT22;9330;52.210;21.174;2022-08-19T05:07:10;21.50;99.90
18408;DHT22;9330;52.210;21.174;2022-08-19T05:09:37;21.60;99.90
18408;DHT22;9330;52.210;21.174;2022-08-19T05:12:05;21.70;99.90
18408;DHT22;9330;52.210;21.174;2022-08-19T05:14:32;21.80;99.90
18408;DHT22;9330;52.210;21.174;2022-08-19T05:17:00;21.80;99.90
18408;DHT22;9330;52.210;21.174;2022-08-19T05:19:29;21.80;99.90
18408;DHT22;9330;52.210;21.174;2022-08-19T05:22:14;21.80;99.90
18408;DHT22;9330;52.210;21.174;2022-08-19T05:25:04;22.00;99.90
18408;DHT22;9330;52.210;21.174;2022-08-19T05:27:33;22.10;99.90
18408;DHT22;9330;52.210;21.174;2022-08-19T05:30:00;22.10;99.90
18408;DHT22;9330;52.210;21.174;2022-08-19T05:32:27;22.30;99.90
18408;DHT22;9330;52.210;21.174;2022-08-19T05:34:56;22.40;99.90
18408;DHT22;9330;52.210;21.174;2022-08-19T05:37:23;22.60;99.90
18408;DHT22;9330;52.210;21.174;2022-08-19T05:39:52;22.70;99.90
18408;DHT22;9330;52.210;21.174;2022-08-19T05:42:20;22.90;99.90
18408;DHT22;9330;52.210;21.174;2022-08-19T05:44:49;23.00;99.90
18408;DHT22;9330;52.210;21.174;2022-08-19T05:47:17;23.00;99.90
18408;DHT22;9330;52.210;21.174;2022-08-19T05:49:45;23.10;99.90
18408;DHT22;9330;52.210;21.174;2022-08-19T05:52:15;23.20;99.90
18408;DHT22;9330;52.210;21.174;2022-08-19T05:54:42;23.30;99.90
18408;DHT22;9330;52.210;21.174;2022-08-19T05:57:16;23.50;99.90
18408;DHT22;9330;52.210;21.174;2022-08-19T05:59:43;23.70;99.90
18408;DHT22;9330;52.210;21.174;2022-08-19T06:02:15;23.90;99.90
18408;DHT22;9330;52.210;21.174;2022-08-19T06:04:42;24.10;99.90
18408;DHT22;9330;52.210;21.174;2022-08-19T06:07:09;24.30;99.90
18408;DHT22;9330;52.210;21.174;2022-08-19T06:09:38;24.50;99.90
18408;DHT22;9330;52.210;21.174;2022-08-19T06:12:05;24.70;99.90
18408;DHT22;9330;52.210;21.174;2022-08-19T06:14:34;25.00;99.90
18408;DHT22;9330;52.210;21.174;2022-08-19T06:17:03;25.10;99.90
18408;DHT22;9330;52.210;21.174;2022-08-19T06:19:31;25.20;99.90
18408;DHT22;9330;52.210;21.174;2022-08-19T06:21:59;25.10;99.90
18408;DHT22;9330;52.210;21.174;2022-08-19T06:24:28;25.10;99.90
18408;DHT22;9330;52.210;21.174;2022-08-19T06:26:58;25.10;99.90
18408;DHT22;9330;52.210;21.174;2022-08-19T06:29:27;25.10;99.90
18408;DHT22;9330;52.210;21.174;2022-08-19T06:31:57;25.10;99.90
18408;DHT22;9330;52.210;21.174;2022-08-19T06:34:25;24.90;99.90
18408;DHT22;9330;52.210;21.174;2022-08-19T06:36:54;24.70;99.90
18408;DHT22;9330;52.210;21.174;2022-08-19T06:39:23;24.70;99.90
18408;DHT22;9330;52.210;21.174;2022-08-19T06:41:53;24.60;99.90
18408;DHT22;9330;52.210;21.174;2022-08-19T06:44:24;24.60;99.90
18408;DHT22;9330;52.210;21.174;2022-08-19T06:46:53;24.70;99.90
18408;DHT22;9330;52.210;21.174;2022-08-19T06:49:20;24.90;99.90
18408;DHT22;9330;52.210;21.174;2022-08-19T06:51:48;25.20;99.90
18408;DHT22;9330;52.210;21.174;2022-08-19T06:54:17;25.40;99.90
18408;DHT22;9330;52.210;21.174;2022-08-19T06:56:44;25.60;99.90
18408;DHT22;9330;52.210;21.174;2022-08-19T06:59:13;25.80;99.90
18408;DHT22;9330;52.210;21.174;2022-08-19T07:01:44;26.10;99.90
18408;DHT22;9330;52.210;21.174;2022-08-19T07:04:14;26.30;99.90
18408;DHT22;9330;52.210;21.174;2022-08-19T07:06:42;26.40;99.90
18408;DHT22;9330;52.210;21.174;2022-08-19T07:09:11;26.50;99.90
18408;DHT22;9330;52.210;21.174;2022-08-19T07:11:38;26.60;99.90
18408;DHT22;9330;52.210;21.174;2022-08-19T07:14:05;26.60;99.90
18408;DHT22;9330;52.210;21.174;2022-08-19T07:16:32;26.70;99.90
18408;DHT22;9330;52.210;21.174;2022-08-19T07:19:01;26.70;99.90
18408;DHT22;9330;52.210;21.174;2022-08-19T07:21:28;26.80;99.90
18408;DHT22;9330;52.210;21.174;2022-08-19T07:23:56;26.70;99.90
18408;DHT22;9330;52.210;21.174;2022-08-19T07:26:26;26.80;99.90
18408;DHT22;9330;52.210;21.174;2022-08-19T07:28:55;26.90;99.90
18408;DHT22;9330;52.210;21.174;2022-08-19T07:31:25;27.00;99.90
18408;DHT22;9330;52.210;21.174;2022-08-19T07:33:54;27.20;99.90
18408;DHT22;9330;52.210;21.174;2022-08-19T07:36:26;27.30;99.90
18408;DHT22;9330;52.210;21.174;2022-08-19T07:38:59;27.50;99.90
18408;DHT22;9330;52.210;21.174;2022-08-19T07:41:28;27.60;99.90
18408;DHT22;9330;52.210;21.174;2022-08-19T07:43:57;27.80;99.90
18408;DHT22;9330;52.210;21.174;2022-08-19T07:46:24;27.80;99.90
18408;DHT22;9330;52.210;21.174;2022-08-19T07:48:54;27.90;99.90
18408;DHT22;9330;52.210;21.174;2022-08-19T07:51:22;27.90;99.90
18408;DHT22;9330;52.210;21.174;2022-08-19T07:53:50;27.90;99.90
18408;DHT22;9330;52.210;21.174;2022-08-19T07:56:18;27.90;99.90
18408;DHT22;9330;52.210;21.174;2022-08-19T07:58:47;27.90;99.90
18408;DHT22;9330;52.210;21.174;2022-08-19T08:01:18;28.00;99.90
18408;DHT22;9330;52.210;21.174;2022-08-19T08:03:46;28.20;99.90
18408;DHT22;9330;52.210;21.174;2022-08-19T08:06:32;28.30;99.90
18408;DHT22;9330;52.210;21.174;2022-08-19T08:09:20;28.40;99.90
18408;DHT22;9330;52.210;21.174;2022-08-19T08:11:50;28.50;99.90
18408;DHT22;9330;52.210;21.174;2022-08-19T08:14:22;28.50;99.90
18408;DHT22;9330;52.210;21.174;2022-08-19T08:16:50;28.50;99.90
18408;DHT22;9330;52.210;21.174;2022-08-19T08:19:18;28.60;99.90
18408;DHT22;9330;52.210;21.174;2022-08-19T08:21:48;28.60;99.90
18408;DHT22;9330;52.210;21.174;2022-08-19T08:24:15;28.70;99.90
18408;DHT22;9330;52.210;21.174;2022-08-19T08:26:43;28.70;99.90
18408;DHT22;9330;52.210;21.174;2022-08-19T08:29:10;28.70;99.90
18408;DHT22;9330;52.210;21.174;2022-08-19T08:31:39;28.80;99.90
18408;DHT22;9330;52.210;21.174;2022-08-19T08:34:06;28.80;99.90
18408;DHT22;9330;52.210;21.174;2022-08-19T08:36:36;28.80;99.90
18408;DHT22;9330;52.210;21.174;2022-08-19T08:39:07;28.90;99.90
18408;DHT22;9330;52.210;21.174;2022-08-19T08:41:39;29.00;99.90
18408;DHT22;9330;52.210;21.174;2022-08-19T08:44:22;29.00;99.90
18408;DHT22;9330;52.210;21.174;2022-08-19T08:46:53;29.10;99.90
18408;DHT22;9330;52.210;21.174;2022-08-19T08:49:28;29.20;99.90
18408;DHT22;9330;52.210;21.174;2022-08-19T08:52:04;29.20;99.90
18408;DHT22;9330;52.210;21.174;2022-08-19T08:54:37;29.30;99.90
18408;DHT22;9330;52.210;21.174;2022-08-19T08:57:11;29.30;99.90
18408;DHT22;9330;52.210;21.174;2022-08-19T08:59:40;29.30;99.90
18408;DHT22;9330;52.210;21.174;2022-08-19T09:02:09;29.40;99.90
18408;DHT22;9330;52.210;21.174;2022-08-19T09:04:36;29.30;99.90
18408;DHT22;9330;52.210;21.174;2022-08-19T09:07:21;29.30;99.90
18408;DHT22;9330;52.210;21.174;2022-08-19T09:09:58;29.30;99.90
18408;DHT22;9330;52.210;21.174;2022-08-19T09:12:36;29.30;99.90
18408;DHT22;9330;52.210;21.174;2022-08-19T09:15:08;29.30;99.90
18408;DHT22;9330;52.210;21.174;2022-08-19T09:17:36;29.30;99.90
18408;DHT22;9330;52.210;21.174;2022-08-19T09:20:18;29.40;99.90
18408;DHT22;9330;52.210;21.174;2022-08-19T09:22:46;29.50;99.90
18408;DHT22;9330;52.210;21.174;2022-08-19T09:25:18;29.40;99.90
18408;DHT22;9330;52.210;21.174;2022-08-19T09:27:46;29.40;99.90
18408;DHT22;9330;52.210;21.174;2022-08-19T09:30:16;29.40;99.90
18408;DHT22;9330;52.210;21.174;2022-08-19T09:32:44;29.50;99.90
18408;DHT22;9330;52.210;21.174;2022-08-19T09:35:12;29.40;99.90
18408;DHT22;9330;52.210;21.174;2022-08-19T09:37:39;29.40;99.90
18408;DHT22;9330;52.210;21.174;2022-08-19T09:40:07;29.40;99.90
18408;DHT22;9330;52.210;21.174;2022-08-19T09:42:36;29.50;99.90
18408;DHT22;9330;52.210;21.174;2022-08-19T09:45:04;29.50;99.90
18408;DHT22;9330;52.210;21.174;2022-08-19T09:47:31;29.60;99.90
18408;DHT22;9330;52.210;21.174;2022-08-19T09:50:01;29.60;99.90
18408;DHT22;9330;52.210;21.174;2022-08-19T09:52:28;29.70;99.90
18408;DHT22;9330;52.210;21.174;2022-08-19T09:54:56;29.90;99.90
18408;DHT22;9330;52.210;21.174;2022-08-19T09:57:23;29.90;99.90
18408;DHT22;9330;52.210;21.174;2022-08-19T09:59:51;30.00;99.90
18408;DHT22;9330;52.210;21.174;2022-08-19T10:02:19;30.10;99.90
18408;DHT22;9330;52.210;21.174;2022-08-19T10:04:46;30.20;99.90
18408;DHT22;9330;52.210;21.174;2022-08-19T10:07:30;30.20;99.90
18408;DHT22;9330;52.210;21.174;2022-08-19T10:09:57;30.20;99.90
18408;DHT22;9330;52.210;21.174;2022-08-19T10:12:25;30.30;99.90
18408;DHT22;9330;52.210;21.174;2022-08-19T10:14:53;30.40;99.90
18408;DHT22;9330;52.210;21.174;2022-08-19T10:17:21;30.40;99.90
18408;DHT22;9330;52.210;21.174;2022-08-19T10:19:48;30.40;99.90
18408;DHT22;9330;52.210;21.174;2022-08-19T10:22:15;30.40;99.90
18408;DHT22;9330;52.210;21.174;2022-08-19T10:24:42;30.40;99.90
18408;DHT22;9330;52.210;21.174;2022-08-19T10:27:09;30.40;99.90
18408;DHT22;9330;52.210;21.174;2022-08-19T10:29:36;30.40;99.90
18408;DHT22;9330;52.210;21.174;2022-08-19T10:32:06;30.40;99.90
18408;DHT22;9330;52.210;21.174;2022-08-19T10:34:34;30.40;99.90
18408;DHT22;9330;52.210;21.174;2022-08-19T10:37:03;30.50;99.90
18408;DHT22;9330;52.210;21.174;2022-08-19T10:39:31;30.50;99.90
18408;DHT22;9330;52.210;21.174;2022-08-19T10:41:59;30.60;99.90
18408;DHT22;9330;52.210;21.174;2022-08-19T10:44:26;30.60;99.90
18408;DHT22;9330;52.210;21.174;2022-08-19T10:46:53;30.70;99.90
18408;DHT22;9330;52.210;21.174;2022-08-19T10:49:22;30.70;99.90
18408;DHT22;9330;52.210;21.174;2022-08-19T10:51:49;30.70;99.90
18408;DHT22;9330;52.210;21.174;2022-08-19T10:54:34;30.90;99.90
18408;DHT22;9330;52.210;21.174;2022-08-19T10:57:30;30.90;99.90
18408;DHT22;9330;52.210;21.174;2022-08-19T10:59:58;31.00;99.90
18408;DHT22;9330;52.210;21.174;2022-08-19T11:02:25;31.10;99.90
18408;DHT22;9330;52.210;21.174;2022-08-19T11:04:53;31.10;99.90
18408;DHT22;9330;52.210;21.174;2022-08-19T11:07:20;31.20;99.90
18408;DHT22;9330;52.210;21.174;2022-08-19T11:09:49;31.30;99.90
18408;DHT22;9330;52.210;21.174;2022-08-19T11:12:16;31.30;99.90
18408;DHT22;9330;52.210;21.174;2022-08-19T11:14:44;31.40;99.90
18408;DHT22;9330;52.210;21.174;2022-08-19T11:17:15;31.50;99.90
18408;DHT22;9330;52.210;21.174;2022-08-19T11:19:42;31.40;99.90
18408;DHT22;9330;52.210;21.174;2022-08-19T11:22:11;31.50;99.90
18408;DHT22;9330;52.210;21.174;2022-08-19T11:24:38;31.50;99.90
18408;DHT22;9330;52.210;21.174;2022-08-19T11:27:08;31.50;99.90
18408;DHT22;9330;52.210;21.174;2022-08-19T11:29:37;31.60;99.90
18408;DHT22;9330;52.210;21.174;2022-08-19T11:32:07;31.70;99.90
18408;DHT22;9330;52.210;21.174;2022-08-19T11:34:35;31.80;99.90
18408;DHT22;9330;52.210;21.174;2022-08-19T11:37:03;32.00;99.90
18408;DHT22;9330;52.210;21.174;2022-08-19T11:39:33;32.20;99.90
18408;DHT22;9330;52.210;21.174;2022-08-19T11:42:01;32.20;99.90
18408;DHT22;9330;52.210;21.174;2022-08-19T11:44:28;32.20;99.90
18408;DHT22;9330;52.210;21.174;2022-08-19T11:46:56;32.40;99.90
18408;DHT22;9330;52.210;21.174;2022-08-19T11:49:23;32.50;99.20
18408;DHT22;9330;52.210;21.174;2022-08-19T11:51:50;32.60;99.00
18408;DHT22;9330;52.210;21.174;2022-08-19T11:54:17;32.90;98.80
18408;DHT22;9330;52.210;21.174;2022-08-19T11:56:45;33.10;97.60
18408;DHT22;9330;52.210;21.174;2022-08-19T11:59:14;33.30;96.50
18408;DHT22;9330;52.210;21.174;2022-08-19T12:01:42;33.40;97.20
18408;DHT22;9330;52.210;21.174;2022-08-19T12:04:09;33.70;96.00
18408;DHT22;9330;52.210;21.174;2022-08-19T12:06:39;33.90;93.90
18408;DHT22;9330;52.210;21.174;2022-08-19T12:09:08;34.10;94.50
18408;DHT22;9330;52.210;21.174;2022-08-19T12:11:36;34.10;93.20
18408;DHT22;9330;52.210;21.174;2022-08-19T12:14:05;34.40;92.90
18408;DHT22;9330;52.210;21.174;2022-08-19T12:16:32;34.50;91.50
18408;DHT22;9330;52.210;21.174;2022-08-19T12:19:00;34.70;91.10
18408;DHT22;9330;52.210;21.174;2022-08-19T12:21:30;34.70;90.00
18408;DHT22;9330;52.210;21.174;2022-08-19T12:23:58;34.90;90.50
18408;DHT22;9330;52.210;21.174;2022-08-19T12:26:27;34.80;87.80
18408;DHT22;9330;52.210;21.174;2022-08-19T12:28:55;34.90;86.00
18408;DHT22;9330;52.210;21.174;2022-08-19T12:31:23;34.90;85.40
18408;DHT22;9330;52.210;21.174;2022-08-19T12:33:50;35.00;86.10
18408;DHT22;9330;52.210;21.174;2022-08-19T12:36:18;35.30;84.60
18408;DHT22;9330;52.210;21.174;2022-08-19T12:38:45;35.30;82.70
18408;DHT22;9330;52.210;21.174;2022-08-19T12:41:14;35.40;79.50
18408;DHT22;9330;52.210;21.174;2022-08-19T12:43:43;35.40;80.50
18408;DHT22;9330;52.210;21.174;2022-08-19T12:46:10;35.50;79.80
18408;DHT22;9330;52.210;21.174;2022-08-19T12:48:39;35.80;74.80
18408;DHT22;9330;52.210;21.174;2022-08-19T12:51:13;35.90;75.60
18408;DHT22;9330;52.210;21.174;2022-08-19T12:53:41;35.80;72.60
18408;DHT22;9330;52.210;21.174;2022-08-19T12:56:10;35.70;73.80
18408;DHT22;9330;52.210;21.174;2022-08-19T12:58:38;35.60;72.50
18408;DHT22;9330;52.210;21.174;2022-08-19T13:01:09;35.70;71.70
18408;DHT22;9330;52.210;21.174;2022-08-19T13:03:38;35.70;69.50
18408;DHT22;9330;52.210;21.174;2022-08-19T13:06:06;35.80;71.90
18408;DHT22;9330;52.210;21.174;2022-08-19T13:08:33;35.80;70.00
18408;DHT22;9330;52.210;21.174;2022-08-19T13:11:08;35.60;69.20
18408;DHT22;9330;52.210;21.174;2022-08-19T13:13:38;35.60;68.40
18408;DHT22;9330;52.210;21.174;2022-08-19T13:16:07;35.50;68.50
18408;DHT22;9330;52.210;21.174;2022-08-19T13:18:35;35.10;68.40
18408;DHT22;9330;52.210;21.174;2022-08-19T13:21:05;34.90;70.40
18408;DHT22;9330;52.210;21.174;2022-08-19T13:23:33;34.70;68.10
18408;DHT22;9330;52.210;21.174;2022-08-19T13:26:03;34.40;67.70
18408;DHT22;9330;52.210;21.174;2022-08-19T13:28:30;34.10;67.20
18408;DHT22;9330;52.210;21.174;2022-08-19T13:31:18;33.80;67.90
18408;DHT22;9330;52.210;21.174;2022-08-19T13:34:04;33.60;68.50
18408;DHT22;9330;52.210;21.174;2022-08-19T13:36:33;33.30;67.60
18408;DHT22;9330;52.210;21.174;2022-08-19T13:39:00;33.10;68.80
18408;DHT22;9330;52.210;21.174;2022-08-19T13:41:27;32.90;69.20
18408;DHT22;9330;52.210;21.174;2022-08-19T13:43:55;32.90;70.90
18408;DHT22;9330;52.210;21.174;2022-08-19T13:46:22;32.80;69.70
18408;DHT22;9330;52.210;21.174;2022-08-19T13:48:49;32.70;70.80
18408;DHT22;9330;52.210;21.174;2022-08-19T13:51:17;32.70;71.50
18408;DHT22;9330;52.210;21.174;2022-08-19T13:53:45;32.80;71.50
18408;DHT22;9330;52.210;21.174;2022-08-19T13:56:15;32.90;71.90
18408;DHT22;9330;52.210;21.174;2022-08-19T13:58:43;33.10;71.90
18408;DHT22;9330;52.210;21.174;2022-08-19T14:01:10;33.20;71.50
18408;DHT22;9330;52.210;21.174;2022-08-19T14:03:37;33.30;70.50
18408;DHT22;9330;52.210;21.174;2022-08-19T14:06:05;33.20;69.60
18408;DHT22;9330;52.210;21.174;2022-08-19T14:08:32;33.10;69.10
18408;DHT22;9330;52.210;21.174;2022-08-19T14:11:00;32.90;70.40
18408;DHT22;9330;52.210;21.174;2022-08-19T14:13:27;32.70;72.40
18408;DHT22;9330;52.210;21.174;2022-08-19T14:15:54;32.70;71.80
18408;DHT22;9330;52.210;21.174;2022-08-19T14:18:21;32.50;70.70
18408;DHT22;9330;52.210;21.174;2022-08-19T14:20:50;32.50;70.70
18408;DHT22;9330;52.210;21.174;2022-08-19T14:23:17;32.50;70.90
18408;DHT22;9330;52.210;21.174;2022-08-19T14:25:44;32.60;70.70
18408;DHT22;9330;52.210;21.174;2022-08-19T14:28:13;32.70;73.50
18408;DHT22;9330;52.210;21.174;2022-08-19T14:30:41;32.90;70.20
18408;DHT22;9330;52.210;21.174;2022-08-19T14:33:10;33.10;70.30
18408;DHT22;9330;52.210;21.174;2022-08-19T14:35:37;33.30;72.60
18408;DHT22;9330;52.210;21.174;2022-08-19T14:38:06;33.30;70.20
18408;DHT22;9330;52.210;21.174;2022-08-19T14:40:42;33.20;71.00
18408;DHT22;9330;52.210;21.174;2022-08-19T14:43:09;33.20;71.40
18408;DHT22;9330;52.210;21.174;2022-08-19T14:45:39;32.90;71.60
18408;DHT22;9330;52.210;21.174;2022-08-19T14:48:07;32.60;70.30
18408;DHT22;9330;52.210;21.174;2022-08-19T14:50:35;32.40;72.10
18408;DHT22;9330;52.210;21.174;2022-08-19T14:53:05;32.20;72.00
18408;DHT22;9330;52.210;21.174;2022-08-19T14:55:33;32.10;72.60
18408;DHT22;9330;52.210;21.174;2022-08-19T14:58:00;31.90;74.10
18408;DHT22;9330;52.210;21.174;2022-08-19T15:00:27;31.80;74.20
18408;DHT22;9330;52.210;21.174;2022-08-19T15:02:56;31.60;74.50
18408;DHT22;9330;52.210;21.174;2022-08-19T15:05:24;31.50;74.30
18408;DHT22;9330;52.210;21.174;2022-08-19T15:07:52;31.40;73.40
18408;DHT22;9330;52.210;21.174;2022-08-19T15:10:19;31.30;74.40
18408;DHT22;9330;52.210;21.174;2022-08-19T15:12:48;31.20;75.20
18408;DHT22;9330;52.210;21.174;2022-08-19T15:15:15;31.10;75.30
18408;DHT22;9330;52.210;21.174;2022-08-19T15:17:43;31.10;77.60
18408;DHT22;9330;52.210;21.174;2022-08-19T15:20:15;31.00;76.90
18408;DHT22;9330;52.210;21.174;2022-08-19T15:22:43;30.90;76.10
18408;DHT22;9330;52.210;21.174;2022-08-19T15:25:13;30.80;75.80
18408;DHT22;9330;52.210;21.174;2022-08-19T15:27:41;30.80;75.90
18408;DHT22;9330;52.210;21.174;2022-08-19T15:30:10;30.80;78.60
18408;DHT22;9330;52.210;21.174;2022-08-19T15:32:37;30.70;76.70
18408;DHT22;9330;52.210;21.174;2022-08-19T15:35:06;30.60;75.90
18408;DHT22;9330;52.210;21.174;2022-08-19T15:37:35;30.60;75.70
18408;DHT22;9330;52.210;21.174;2022-08-19T15:40:03;30.50;76.90
18408;DHT22;9330;52.210;21.174;2022-08-19T15:42:30;30.50;76.80
18408;DHT22;9330;52.210;21.174;2022-08-19T15:44:58;30.50;77.10